sensor_id;sensor_type;location;lat;lon;timestamp;temperature;humidity
27779;DHT22;30234;48.090;11.464;2022-07-05T00:00:06;16.90;99.90
27779;DHT22;30234;48.090;11.464;2022-07-05T00:04:07;17.00;99.90
27779;DHT22;30234;48.090;11.464;2022-07-05T00:08:08;16.90;99.90
27779;DHT22;30234;48.090;11.464;2022-07-05T00:12:09;16.90;99.90
27779;DHT22;30234;48.090;11.464;2022-07-05T00:16:10;16.90;99.90
27779;DHT22;30234;48.090;11.464;2022-07-05T00:20:10;16.90;99.90
27779;DHT22;30234;48.090;11.464;2022-07-05T00:24:11;16.90;99.90
27779;DHT22;30234;48.090;11.464;2022-07-05T00:28:12;16.90;99.90
27779;DHT22;30234;48.090;11.464;2022-07-05T00:32:14;16.90;99.90
27779;DHT22;30234;48.090;11.464;2022-07-05T00:36:14;16.90;99.90
27779;DHT22;30234;48.090;11.464;2022-07-05T00:40:15;16.80;99.90
27779;DHT22;30234;48.090;11.464;2022-07-05T00:44:16;16.70;99.90
27779;DHT22;30234;48.090;11.464;2022-07-05T00:48:17;16.70;99.90
27779;DHT22;30234;48.090;11.464;2022-07-05T00:52:18;16.70;99.90
27779;DHT22;30234;48.090;11.464;2022-07-05T00:56:19;16.70;99.90
27779;DHT22;30234;48.090;11.464;2022-07-05T01:00:21;16.70;99.90
27779;DHT22;30234;48.090;11.464;2022-07-05T01:04:21;16.60;99.90
27779;DHT22;30234;48.090;11.464;2022-07-05T01:08:23;16.60;99.90
27779;DHT22;30234;48.090;11.464;2022-07-05T01:12:24;16.60;99.90
27779;DHT22;30234;48.090;11.464;2022-07-05T01:16:25;16.60;99.90
27779;DHT22;30234;48.090;11.464;2022-07-05T01:20:26;16.60;99.90
27779;DHT22;30234;48.090;11.464;2022-07-05T01:24:27;16.60;99.90
27779;DHT22;30234;48.090;11.464;2022-07-05T01:28:28;16.60;99.90
27779;DHT22;30234;48.090;11.464;2022-07-05T01:32:29;16.60;99.90
27779;DHT22;30234;48.090;11.464;2022-07-05T01:36:30;16.60;99.90
27779;DHT22;30234;48.090;11.464;2022-07-05T01:40:31;16.60;99.90
27779;DHT22;30234;48.090;11.464;2022-07-05T01:44:32;16.60;99.90
27779;DHT22;30234;48.090;11.464;2022-07-05T01:48:33;16.70;99.90
27779;DHT22;30234;48.090;11.464;2022-07-05T01:52:36;16.70;99.90
27779;DHT22;30234;48.090;11.464;2022-07-05T01:56:40;16.70;99.90
27779;DHT22;30234;48.090;11.464;2022-07-05T02:00:48;16.60;99.90
27779;DHT22;30234;48.090;11.464;2022-07-05T02:04:49;16.50;99.90
27779;DHT22;30234;48.090;11.464;2022-07-05T02:08:50;16.50;99.90
27779;DHT22;30234;48.090;11.464;2022-07-05T02:12:51;16.50;99.90
27779;DHT22;30234;48.090;11.464;2022-07-05T02:16:52;16.50;99.90
27779;DHT22;30234;48.090;11.464;2022-07-05T02:20:52;16.40;99.90
27779;DHT22;30234;48.090;11.464;2022-07-05T02:24:53;16.50;99.90
27779;DHT22;30234;48.090;11.464;2022-07-05T02:28:54;16.40;99.90
27779;DHT22;30234;48.090;11.464;2022-07-05T02:32:55;16.50;99.90
27779;DHT22;30234;48.090;11.464;2022-07-05T02:36:55;16.50;99.90
27779;DHT22;30234;48.090;11.464;2022-07-05T02:40:56;16.50;99.90
27779;DHT22;30234;48.090;11.464;2022-07-05T02:44:57;16.50;99.90
27779;DHT22;30234;48.090;11.464;2022-07-05T02:48:58;16.50;99.90
27779;DHT22;30234;48.090;11.464;2022-07-05T02:52:58;16.50;99.90
27779;DHT22;30234;48.090;11.464;2022-07-05T02:57:00;16.40;99.90
27779;DHT22;30234;48.090;11.464;2022-07-05T03:01:00;16.30;99.90
27779;DHT22;30234;48.090;11.464;2022-07-05T03:05:01;16.30;99.90
27779;DHT22;30234;48.090;11.464;2022-07-05T03:09:02;16.20;99.90
27779;DHT22;30234;48.090;11.464;2022-07-05T03:13:03;16.20;99.90
27779;DHT22;30234;48.090;11.464;2022-07-05T03:17:04;16.20;99.90
27779;DHT22;30234;48.090;11.464;2022-07-05T03:21:05;16.20;99.90
27779;DHT22;30234;48.090;11.464;2022-07-05T03:25:06;16.30;99.90
27779;DHT22;30234;48.090;11.464;2022-07-05T03:29:07;16.30;99.90
27779;DHT22;30234;48.090;11.464;2022-07-05T03:33:08;16.20;99.90
27779;DHT22;30234;48.090;11.464;2022-07-05T03:37:08;16.10;99.90
27779;DHT22;30234;48.090;11.464;2022-07-05T03:41:09;16.00;99.90
27779;DHT22;30234;48.090;11.464;2022-07-05T03:45:10;15.90;99.90
27779;DHT22;30234;48.090;11.464;2022-07-05T03:49:11;16.00;99.90
27779;DHT22;30234;48.090;11.464;2022-07-05T03:53:12;15.90;99.90
27779;DHT22;30234;48.090;11.464;2022-07-05T03:57:13;16.00;99.90
27779;DHT22;30234;48.090;11.464;2022-07-05T04:01:14;16.00;99.90
27779;DHT22;30234;48.090;11.464;2022-07-05T04:05:14;16.00;99.90
27779;DHT22;30234;48.090;11.464;2022-07-05T04:09:15;16.10;99.90
27779;DHT22;30234;48.090;11.464;2022-07-05T04:13:16;16.10;99.90
27779;DHT22;30234;48.090;11.464;2022-07-05T04:17:17;16.10;99.90
27779;DHT22;30234;48.090;11.464;2022-07-05T04:21:17;16.20;99.90
27779;DHT22;30234;48.090;11.464;2022-07-05T04:25:18;16.50;99.90
27779;DHT22;30234;48.090;11.464;2022-07-05T04:29:19;16.80;99.90
27779;DHT22;30234;48.090;11.464;2022-07-05T04:33:20;17.10;99.90
27779;DHT22;30234;48.090;11.464;2022-07-05T04:37:21;17.50;99.90
27779;DHT22;30234;48.090;11.464;2022-07-05T04:41:22;17.90;99.90
27779;DHT22;30234;48.090;11.464;2022-07-05T04:45:23;18.00;99.90
27779;DHT22;30234;48.090;11.464;2022-07-05T04:49:23;17.80;99.90
27779;DHT22;30234;48.090;11.464;2022-07-05T04:53:24;17.90;99.90
27779;DHT22;30234;48.090;11.464;2022-07-05T04:57:25;17.90;99.90
27779;DHT22;30234;48.090;11.464;2022-07-05T05:01:26;17.90;99.90
27779;DHT22;30234;48.090;11.464;2022-07-05T05:05:27;18.00;99.90
27779;DHT22;30234;48.090;11.464;2022-07-05T05:09:27;18.00;99.90
27779;DHT22;30234;48.090;11.464;2022-07-05T05:13:28;18.20;99.90
27779;DHT22;30234;48.090;11.464;2022-07-05T05:17:42;19.10;99.90
27779;DHT22;30234;48.090;11.464;2022-07-05T05:21:43;21.80;99.90
27779;DHT22;30234;48.090;11.464;2022-07-05T05:25:44;24.90;99.90
27779;DHT22;30234;48.090;11.464;2022-07-05T05:29:52;26.70;99.90
27779;DHT22;30234;48.090;11.464;2022-07-05T05:33:53;28.40;99.90
27779;DHT22;30234;48.090;11.464;2022-07-05T05:37:55;29.10;99.90
27779;DHT22;30234;48.090;11.464;2022-07-05T05:41:56;30.30;99.90
27779;DHT22;30234;48.090;11.464;2022-07-05T05:46:08;30.20;99.90
27779;DHT22;30234;48.090;11.464;2022-07-05T05:50:12;30.40;99.90
27779;DHT22;30234;48.090;11.464;2022-07-05T05:54:13;30.90;99.90
27779;DHT22;30234;48.090;11.464;2022-07-05T05:58:22;31.30;99.90
27779;DHT22;30234;48.090;11.464;2022-07-05T06:02:26;31.40;99.90
27779;DHT22;30234;48.090;11.464;2022-07-05T06:06:27;32.00;99.10
27779;DHT22;30234;48.090;11.464;2022-07-05T06:10:30;32.30;97.30
27779;DHT22;30234;48.090;11.464;2022-07-05T06:14:35;31.90;96.50
27779;DHT22;30234;48.090;11.464;2022-07-05T06:18:36;33.30;95.70
27779;DHT22;30234;48.090;11.464;2022-07-05T06:22:37;33.50;93.80
27779;DHT22;30234;48.090;11.464;2022-07-05T06:26:40;33.00;92.80
27779;DHT22;30234;48.090;11.464;2022-07-05T06:30:41;33.10;92.70
27779;DHT22;30234;48.090;11.464;2022-07-05T06:34:42;33.30;92.20
27779;DHT22;30234;48.090;11.464;2022-07-05T06:38:46;33.30;91.30
27779;DHT22;30234;48.090;11.464;2022-07-05T06:42:55;33.50;91.40
27779;DHT22;30234;48.090;11.464;2022-07-05T06:46:59;30.20;94.30
27779;DHT22;30234;48.090;11.464;2022-07-05T06:50:59;30.30;96.20
27779;DHT22;30234;48.090;11.464;2022-07-05T06:55:01;31.80;93.80
27779;DHT22;30234;48.090;11.464;2022-07-05T06:59:03;31.30;93.00
27779;DHT22;30234;48.090;11.464;2022-07-05T07:03:06;28.80;96.00
27779;DHT22;30234;48.090;11.464;2022-07-05T07:07:07;29.10;97.10
27779;DHT22;30234;48.090;11.464;2022-07-05T07:11:28;26.90;99.90
27779;DHT22;30234;48.090;11.464;2022-07-05T07:15:30;26.60;99.90
27779;DHT22;30234;48.090;11.464;2022-07-05T07:19:36;30.60;98.90
27779;DHT22;30234;48.090;11.464;2022-07-05T07:23:37;32.60;93.40
27779;DHT22;30234;48.090;11.464;2022-07-05T07:31:50;32.40;88.80
27779;DHT22;30234;48.090;11.464;2022-07-05T07:35:51;29.20;94.10
27779;DHT22;30234;48.090;11.464;2022-07-05T07:39:52;27.20;98.20
27779;DHT22;30234;48.090;11.464;2022-07-05T07:44:26;27.40;99.40
27779;DHT22;30234;48.090;11.464;2022-07-05T07:48:27;28.70;95.50
27779;DHT22;30234;48.090;11.464;2022-07-05T07:52:29;29.60;95.20
27779;DHT22;30234;48.090;11.464;2022-07-05T07:56:43;29.10;94.70
27779;DHT22;30234;48.090;11.464;2022-07-05T08:00:48;27.80;96.70
27779;DHT22;30234;48.090;11.464;2022-07-05T08:04:52;29.90;94.90
27779;DHT22;30234;48.090;11.464;2022-07-05T08:08:53;32.40;84.20
27779;DHT22;30234;48.090;11.464;2022-07-05T08:12:55;34.20;82.70
27779;DHT22;30234;48.090;11.464;2022-07-05T08:16:56;36.70;67.70
27779;DHT22;30234;48.090;11.464;2022-07-05T08:21:00;38.70;61.00
27779;DHT22;30234;48.090;11.464;2022-07-05T08:25:20;38.30;54.00
27779;DHT22;30234;48.090;11.464;2022-07-05T08:29:21;37.40;51.20
27779;DHT22;30234;48.090;11.464;2022-07-05T08:33:22;37.70;51.70
27779;DHT22;30234;48.090;11.464;2022-07-05T08:37:43;36.80;46.40
27779;DHT22;30234;48.090;11.464;2022-07-05T08:41:51;37.50;45.90
27779;DHT22;30234;48.090;11.464;2022-07-05T08:45:53;37.30;47.70
27779;DHT22;30234;48.090;11.464;2022-07-05T08:50:27;37.50;45.00
27779;DHT22;30234;48.090;11.464;2022-07-05T08:54:36;37.10;46.50
27779;DHT22;30234;48.090;11.464;2022-07-05T08:59:03;36.30;47.20
27779;DHT22;30234;48.090;11.464;2022-07-05T09:03:20;35.90;46.50
27779;DHT22;30234;48.090;11.464;2022-07-05T09:07:36;33.00;50.40
27779;DHT22;30234;48.090;11.464;2022-07-05T09:11:39;35.20;48.80
27779;DHT22;30234;48.090;11.464;2022-07-05T09:15:43;36.00;46.70
27779;DHT22;30234;48.090;11.464;2022-07-05T09:20:05;35.90;44.20
27779;DHT22;30234;48.090;11.464;2022-07-05T09:24:12;35.80;45.10
27779;DHT22;30234;48.090;11.464;2022-07-05T09:28:14;36.50;45.00
27779;DHT22;30234;48.090;11.464;2022-07-05T09:32:25;37.00;43.70
27779;DHT22;30234;48.090;11.464;2022-07-05T09:36:28;37.60;43.70
27779;DHT22;30234;48.090;11.464;2022-07-05T09:40:45;38.80;41.70
27779;DHT22;30234;48.090;11.464;2022-07-05T09:44:54;38.50;42.60
27779;DHT22;30234;48.090;11.464;2022-07-05T09:48:56;38.00;40.30
27779;DHT22;30234;48.090;11.464;2022-07-05T09:53:49;33.70;45.60
27779;DHT22;30234;48.090;11.464;2022-07-05T09:57:51;32.40;50.10
27779;DHT22;30234;48.090;11.464;2022-07-05T10:01:53;34.60;46.30
27779;DHT22;30234;48.090;11.464;2022-07-05T10:06:09;35.50;44.70
27779;DHT22;30234;48.090;11.464;2022-07-05T10:10:32;36.50;42.80
27779;DHT22;30234;48.090;11.464;2022-07-05T10:14:33;36.60;43.00
27779;DHT22;30234;48.090;11.464;2022-07-05T10:18:44;34.60;45.10
27779;DHT22;30234;48.090;11.464;2022-07-05T10:22:47;33.50;45.10
27779;DHT22;30234;48.090;11.464;2022-07-05T10:26:51;34.70;45.10
27779;DHT22;30234;48.090;11.464;2022-07-05T10:30:54;35.40;44.70
27779;DHT22;30234;48.090;11.464;2022-07-05T10:34:58;36.00;43.90
27779;DHT22;30234;48.090;11.464;2022-07-05T10:39:03;33.50;44.60
27779;DHT22;30234;48.090;11.464;2022-07-05T10:43:13;30.80;49.50
27779;DHT22;30234;48.090;11.464;2022-07-05T10:47:15;31.30;49.20
27779;DHT22;30234;48.090;11.464;2022-07-05T10:51:18;33.00;47.10
27779;DHT22;30234;48.090;11.464;2022-07-05T10:55:21;34.40;44.40
27779;DHT22;30234;48.090;11.464;2022-07-05T10:59:24;33.40;44.80
27779;DHT22;30234;48.090;11.464;2022-07-05T11:03:42;31.90;46.90
27779;DHT22;30234;48.090;11.464;2022-07-05T11:08:03;32.10;46.50
27779;DHT22;30234;48.090;11.464;2022-07-05T11:12:06;30.20;48.10
27779;DHT22;30234;48.090;11.464;2022-07-05T11:16:24;28.70;49.10
27779;DHT22;30234;48.090;11.464;2022-07-05T11:20:33;28.40;51.20
27779;DHT22;30234;48.090;11.464;2022-07-05T11:24:37;27.90;50.60
27779;DHT22;30234;48.090;11.464;2022-07-05T11:33:53;30.00;48.90
27779;DHT22;30234;48.090;11.464;2022-07-05T11:53:31;29.70;45.90
27779;DHT22;30234;48.090;11.464;2022-07-05T12:02:29;29.70;46.10
27779;DHT22;30234;48.090;11.464;2022-07-05T12:06:41;29.10;46.50
27779;DHT22;30234;48.090;11.464;2022-07-05T12:11:21;28.50;47.60
27779;DHT22;30234;48.090;11.464;2022-07-05T12:15:40;28.50;48.20
27779;DHT22;30234;48.090;11.464;2022-07-05T12:20:09;28.90;46.80
27779;DHT22;30234;48.090;11.464;2022-07-05T12:24:14;28.80;46.50
27779;DHT22;30234;48.090;11.464;2022-07-05T12:33:06;29.60;48.30
27779;DHT22;30234;48.090;11.464;2022-07-05T12:37:26;31.50;47.50
27779;DHT22;30234;48.090;11.464;2022-07-05T12:41:48;32.10;44.20
27779;DHT22;30234;48.090;11.464;2022-07-05T12:46:05;32.40;44.20
27779;DHT22;30234;48.090;11.464;2022-07-05T12:50:11;31.80;45.00
27779;DHT22;30234;48.090;11.464;2022-07-05T12:59:21;29.30;48.80
27779;DHT22;30234;48.090;11.464;2022-07-05T13:03:32;29.00;49.30
27779;DHT22;30234;48.090;11.464;2022-07-05T13:08:06;29.20;50.20
27779;DHT22;30234;48.090;11.464;2022-07-05T13:12:21;30.80;48.60
27779;DHT22;30234;48.090;11.464;2022-07-05T13:16:22;32.10;45.10
27779;DHT22;30234;48.090;11.464;2022-07-05T13:20:23;32.20;45.40
27779;DHT22;30234;48.090;11.464;2022-07-05T13:24:26;32.20;45.40
27779;DHT22;30234;48.090;11.464;2022-07-05T13:28:30;32.20;43.30
27779;DHT22;30234;48.090;11.464;2022-07-05T13:32:31;32.60;43.80
27779;DHT22;30234;48.090;11.464;2022-07-05T13:36:35;32.20;43.60
27779;DHT22;30234;48.090;11.464;2022-07-05T13:40:36;31.30;43.50
27779;DHT22;30234;48.090;11.464;2022-07-05T13:44:50;29.90;46.60
27779;DHT22;30234;48.090;11.464;2022-07-05T13:48:59;29.60;47.80
27779;DHT22;30234;48.090;11.464;2022-07-05T13:53:00;30.40;46.70
27779;DHT22;30234;48.090;11.464;2022-07-05T13:57:04;31.20;45.80
27779;DHT22;30234;48.090;11.464;2022-07-05T14:01:08;31.10;45.70
27779;DHT22;30234;48.090;11.464;2022-07-05T14:05:09;30.00;46.60
27779;DHT22;30234;48.090;11.464;2022-07-05T14:09:10;29.60;47.70
27779;DHT22;30234;48.090;11.464;2022-07-05T14:13:14;30.00;47.50
27779;DHT22;30234;48.090;11.464;2022-07-05T14:17:20;29.80;49.60
27779;DHT22;30234;48.090;11.464;2022-07-05T14:21:35;29.90;47.80
27779;DHT22;30234;48.090;11.464;2022-07-05T14:25:44;29.80;46.10
27779;DHT22;30234;48.090;11.464;2022-07-05T14:29:52;30.60;47.80
27779;DHT22;30234;48.090;11.464;2022-07-05T14:33:59;30.40;48.60
27779;DHT22;30234;48.090;11.464;2022-07-05T14:38:00;29.60;48.80
27779;DHT22;30234;48.090;11.464;2022-07-05T14:42:25;28.80;49.00
27779;DHT22;30234;48.090;11.464;2022-07-05T14:46:31;28.00;48.50
27779;DHT22;30234;48.090;11.464;2022-07-05T14:50:35;27.70;50.60
27779;DHT22;30234;48.090;11.464;2022-07-05T14:54:39;27.30;50.20
27779;DHT22;30234;48.090;11.464;2022-07-05T14:58:46;28.30;49.40
27779;DHT22;30234;48.090;11.464;2022-07-05T15:03:39;29.50;49.40
27779;DHT22;30234;48.090;11.464;2022-07-05T15:12:14;31.30;47.50
27779;DHT22;30234;48.090;11.464;2022-07-05T15:16:17;31.80;45.60
27779;DHT22;30234;48.090;11.464;2022-07-05T15:20:19;31.80;45.10
27779;DHT22;30234;48.090;11.464;2022-07-05T15:34:36;31.10;44.70
27779;DHT22;30234;48.090;11.464;2022-07-05T15:39:24;30.90;44.10
27779;DHT22;30234;48.090;11.464;2022-07-05T15:43:27;30.80;47.40
27779;DHT22;30234;48.090;11.464;2022-07-05T15:47:31;29.20;48.80
27779;DHT22;30234;48.090;11.464;2022-07-05T15:57:20;29.00;50.90
27779;DHT22;30234;48.090;11.464;2022-07-05T16:01:33;29.10;48.60
27779;DHT22;30234;48.090;11.464;2022-07-05T16:05:49;29.20;47.90
27779;DHT22;30234;48.090;11.464;2022-07-05T16:09:57;29.40;47.40
27779;DHT22;30234;48.090;11.464;2022-07-05T16:14:21;29.20;47.60
27779;DHT22;30234;48.090;11.464;2022-07-05T16:18:28;29.20;48.10
27779;DHT22;30234;48.090;11.464;2022-07-05T16:27:57;29.10;46.40
27779;DHT22;30234;48.090;11.464;2022-07-05T16:37:26;28.50;49.90
27779;DHT22;30234;48.090;11.464;2022-07-05T16:42:13;28.50;50.00
27779;DHT22;30234;48.090;11.464;2022-07-05T16:46:24;28.20;49.80
27779;DHT22;30234;48.090;11.464;2022-07-05T16:55:26;27.80;51.50
27779;DHT22;30234;48.090;11.464;2022-07-05T16:59:29;27.80;51.10
27779;DHT22;30234;48.090;11.464;2022-07-05T17:03:35;27.70;51.60
27779;DHT22;30234;48.090;11.464;2022-07-05T17:07:57;27.50;52.30
27779;DHT22;30234;48.090;11.464;2022-07-05T17:12:07;27.10;52.20
27779;DHT22;30234;48.090;11.464;2022-07-05T17:16:21;26.70;52.90
27779;DHT22;30234;48.090;11.464;2022-07-05T17:20:25;26.40;54.50
27779;DHT22;30234;48.090;11.464;2022-07-05T17:24:28;26.10;54.40
27779;DHT22;30234;48.090;11.464;2022-07-05T17:33:12;26.40;53.60
27779;DHT22;30234;48.090;11.464;2022-07-05T17:37:29;26.40;54.10
27779;DHT22;30234;48.090;11.464;2022-07-05T17:41:36;26.50;54.70
27779;DHT22;30234;48.090;11.464;2022-07-05T17:45:59;26.30;54.80
27779;DHT22;30234;48.090;11.464;2022-07-05T17:50:00;25.90;55.10
27779;DHT22;30234;48.090;11.464;2022-07-05T17:54:04;25.70;55.70
27779;DHT22;30234;48.090;11.464;2022-07-05T17:58:14;25.30;56.70
27779;DHT22;30234;48.090;11.464;2022-07-05T18:02:15;25.10;57.70
27779;DHT22;30234;48.090;11.464;2022-07-05T18:06:19;24.90;57.50
27779;DHT22;30234;48.090;11.464;2022-07-05T18:15:17;24.70;58.30
27779;DHT22;30234;48.090;11.464;2022-07-05T18:19:18;24.60;58.70
27779;DHT22;30234;48.090;11.464;2022-07-05T18:23:19;24.50;59.30
27779;DHT22;30234;48.090;11.464;2022-07-05T18:27:20;24.50;59.50
27779;DHT22;30234;48.090;11.464;2022-07-05T18:31:21;24.30;60.50
27779;DHT22;30234;48.090;11.464;2022-07-05T18:35:23;24.10;61.90
27779;DHT22;30234;48.090;11.464;2022-07-05T18:39:24;23.70;63.00
27779;DHT22;30234;48.090;11.464;2022-07-05T18:43:28;23.30;64.50
27779;DHT22;30234;48.090;11.464;2022-07-05T18:47:30;23.00;66.20
27779;DHT22;30234;48.090;11.464;2022-07-05T18:51:31;22.80;67.10
27779;DHT22;30234;48.090;11.464;2022-07-05T18:55:32;22.50;69.90
27779;DHT22;30234;48.090;11.464;2022-07-05T18:59:33;22.20;71.30
27779;DHT22;30234;48.090;11.464;2022-07-05T19:03:37;21.80;73.40
27779;DHT22;30234;48.090;11.464;2022-07-05T19:07:47;21.70;77.80
27779;DHT22;30234;48.090;11.464;2022-07-05T19:12:17;21.60;80.50
27779;DHT22;30234;48.090;11.464;2022-07-05T19:16:37;21.50;82.30
27779;DHT22;30234;48.090;11.464;2022-07-05T19:20:38;21.40;84.20
27779;DHT22;30234;48.090;11.464;2022-07-05T19:24:40;21.20;85.50
27779;DHT22;30234;48.090;11.464;2022-07-05T19:28:41;21.00;88.10
27779;DHT22;30234;48.090;11.464;2022-07-05T19:32:42;20.70;91.00
27779;DHT22;30234;48.090;11.464;2022-07-05T19:36:43;20.30;94.40
27779;DHT22;30234;48.090;11.464;2022-07-05T19:40:43;20.10;99.90
27779;DHT22;30234;48.090;11.464;2022-07-05T19:44:46;19.80;99.90
27779;DHT22;30234;48.090;11.464;2022-07-05T19:48:51;19.50;99.90
27779;DHT22;30234;48.090;11.464;2022-07-05T19:52:52;19.20;99.90
27779;DHT22;30234;48.090;11.464;2022-07-05T19:56:56;18.90;99.90
27779;DHT22;30234;48.090;11.464;2022-07-05T20:00:57;18.60;99.90
27779;DHT22;30234;48.090;11.464;2022-07-05T20:05:07;18.30;99.90
27779;DHT22;30234;48.090;11.464;2022-07-05T20:09:09;18.20;99.90
27779;DHT22;30234;48.090;11.464;2022-07-05T20:13:13;18.10;99.90
27779;DHT22;30234;48.090;11.464;2022-07-05T20:17:16;18.00;99.90
27779;DHT22;30234;48.090;11.464;2022-07-05T20:21:17;17.80;99.90
27779;DHT22;30234;48.090;11.464;2022-07-05T20:25:18;17.70;99.90
27779;DHT22;30234;48.090;11.464;2022-07-05T20:29:19;17.50;99.90
27779;DHT22;30234;48.090;11.464;2022-07-05T20:33:25;17.30;99.90
27779;DHT22;30234;48.090;11.464;2022-07-05T20:37:26;17.20;99.90
27779;DHT22;30234;48.090;11.464;2022-07-05T20:41:27;16.90;99.90
27779;DHT22;30234;48.090;11.464;2022-07-05T20:45:28;16.80;99.90
27779;DHT22;30234;48.090;11.464;2022-07-05T20:49:29;16.60;99.90
27779;DHT22;30234;48.090;11.464;2022-07-05T20:53:29;16.50;99.90
27779;DHT22;30234;48.090;11.464;2022-07-05T20:57:30;16.40;99.90
27779;DHT22;30234;48.090;11.464;2022-07-05T21:01:31;16.50;99.90
27779;DHT22;30234;48.090;11.464;2022-07-05T21:05:32;16.40;99.90
27779;DHT22;30234;48.090;11.464;2022-07-05T21:09:34;16.20;99.90
27779;DHT22;30234;48.090;11.464;2022-07-05T21:13:35;16.00;99.90
27779;DHT22;30234;48.090;11.464;2022-07-05T21:17:39;15.80;99.90
27779;DHT22;30234;48.090;11.464;2022-07-05T21:21:40;15.70;99.90
27779;DHT22;30234;48.090;11.464;2022-07-05T21:25:40;15.60;99.90
27779;DHT22;30234;48.090;11.464;2022-07-05T21:29:41;15.50;99.90
27779;DHT22;30234;48.090;11.464;2022-07-05T21:33:42;15.40;99.90
27779;DHT22;30234;48.090;11.464;2022-07-05T21:37:43;15.30;99.90
27779;DHT22;30234;48.090;11.464;2022-07-05T21:41:45;15.20;99.90
27779;DHT22;30234;48.090;11.464;2022-07-05T21:45:46;15.10;99.90
27779;DHT22;30234;48.090;11.464;2022-07-05T21:49:46;15.00;99.90
27779;DHT22;30234;48.090;11.464;2022-07-05T21:53:47;15.00;99.90
27779;DHT22;30234;48.090;11.464;2022-07-05T21:57:48;15.00;99.90
27779;DHT22;30234;48.090;11.464;2022-07-05T22:01:49;15.00;99.90
27779;DHT22;30234;48.090;11.464;2022-07-05T22:06:09;14.90;99.90
27779;DHT22;30234;48.090;11.464;2022-07-05T22:10:09;14.80;99.90
27779;DHT22;30234;48.090;11.464;2022-07-05T22:14:10;14.70;99.90
27779;DHT22;30234;48.090;11.464;2022-07-05T22:18:11;14.60;99.90
27779;DHT22;30234;48.090;11.464;2022-07-05T22:22:12;14.90;99.90
27779;DHT22;30234;48.090;11.464;2022-07-05T22:26:12;15.10;99.90
27779;DHT22;30234;48.090;11.464;2022-07-05T22:30:13;15.10;99.90
27779;DHT22;30234;48.090;11.464;2022-07-05T22:34:14;15.10;99.90
27779;DHT22;30234;48.090;11.464;2022-07-05T22:38:15;15.20;99.90
27779;DHT22;30234;48.090;11.464;2022-07-05T22:42:16;15.20;99.90
27779;DHT22;30234;48.090;11.464;2022-07-05T22:46:16;15.20;99.90
27779;DHT22;30234;48.090;11.464;2022-07-05T22:50:17;15.30;99.90
27779;DHT22;30234;48.090;11.464;2022-07-05T22:54:18;15.40;99.90
27779;DHT22;30234;48.090;11.464;2022-07-05T22:58:19;15.60;99.90
27779;DHT22;30234;48.090;11.464;2022-07-05T23:02:19;15.70;99.90
27779;DHT22;30234;48.090;11.464;2022-07-05T23:06:20;15.80;99.90
27779;DHT22;30234;48.090;11.464;2022-07-05T23:10:21;16.40;99.90
27779;DHT22;30234;48.090;11.464;2022-07-05T23:14:21;16.80;99.90
27779;DHT22;30234;48.090;11.464;2022-07-05T23:18:22;16.80;99.90
27779;DHT22;30234;48.090;11.464;2022-07-05T23:22:23;16.60;99.90
27779;DHT22;30234;48.090;11.464;2022-07-05T23:26:23;16.50;99.90
27779;DHT22;30234;48.090;11.464;2022-07-05T23:30:24;16.40;99.90
27779;DHT22;30234;48.090;11.464;2022-07-05T23:34:25;16.30;99.90
27779;DHT22;30234;48.090;11.464;2022-07-05T23:38:26;16.50;99.90
27779;DHT22;30234;48.090;11.464;2022-07-05T23:42:26;16.80;99.90
27779;DHT22;30234;48.090;11.464;2022-07-05T23:46:27;17.10;99.90
27779;DHT22;30234;48.090;11.464;2022-07-05T23:50:28;17.20;99.90
27779;DHT22;30234;48.090;11.464;2022-07-05T23:54:29;17.30;99.90
27779;DHT22;30234;48.090;11.464;2022-07-05T23:58:30;17.50;99.90
